sensor_id;sensor_type;location;lat;lon;timestamp;P1;durP1;ratioP1;P2;durP2;ratioP2
10191;SDS011;17580;50.850;4.504;2023-08-17T00:01:33;2.00;;;1.90;;
10191;SDS011;17580;50.850;4.504;2023-08-17T00:04:00;2.13;;;2.00;;
10191;SDS011;17580;50.850;4.504;2023-08-17T00:06:27;2.10;;;1.97;;
10191;SDS011;17580;50.850;4.504;2023-08-17T00:08:56;2.13;;;1.93;;
10191;SDS011;17580;50.850;4.504;2023-08-17T00:11:23;2.37;;;2.17;;
10191;SDS011;17580;50.850;4.504;2023-08-17T00:13:50;2.07;;;1.97;;
10191;SDS011;17580;50.850;4.504;2023-08-17T00:16:17;2.40;;;2.20;;
10191;SDS011;17580;50.850;4.504;2023-08-17T00:18:44;2.13;;;2.03;;
10191;SDS011;17580;50.850;4.504;2023-08-17T00:21:12;2.17;;;1.97;;
10191;SDS011;17580;50.850;4.504;2023-08-17T00:23:39;2.20;;;2.00;;
10191;SDS011;17580;50.850;4.504;2023-08-17T00:26:08;2.60;;;2.17;;
10191;SDS011;17580;50.850;4.504;2023-08-17T00:28:35;2.30;;;2.20;;
10191;SDS011;17580;50.850;4.504;2023-08-17T00:31:03;3.80;;;2.00;;
10191;SDS011;17580;50.850;4.504;2023-08-17T00:33:30;2.63;;;2.10;;
10191;SDS011;17580;50.850;4.504;2023-08-17T00:35:57;2.13;;;2.03;;
10191;SDS011;17580;50.850;4.504;2023-08-17T00:38:24;2.00;;;1.90;;
10191;SDS011;17580;50.850;4.504;2023-08-17T00:40:51;2.57;;;2.37;;
10191;SDS011;17580;50.850;4.504;2023-08-17T00:43:19;1.83;;;1.73;;
10191;SDS011;17580;50.850;4.504;2023-08-17T00:45:46;1.70;;;1.60;;
10191;SDS011;17580;50.850;4.504;2023-08-17T00:48:13;2.10;;;2.00;;
10191;SDS011;17580;50.850;4.504;2023-08-17T00:50:41;1.77;;;1.67;;
10191;SDS011;17580;50.850;4.504;2023-08-17T00:53:08;2.37;;;2.23;;
10191;SDS011;17580;50.850;4.504;2023-08-17T00:55:38;2.20;;;2.00;;
10191;SDS011;17580;50.850;4.504;2023-08-17T00:58:05;2.27;;;2.10;;
10191;SDS011;17580;50.850;4.504;2023-08-17T01:00:34;2.37;;;2.17;;
10191;SDS011;17580;50.850;4.504;2023-08-17T01:03:01;2.67;;;2.07;;
10191;SDS011;17580;50.850;4.504;2023-08-17T01:05:29;1.43;;;1.43;;
10191;SDS011;17580;50.850;4.504;2023-08-17T01:07:57;2.00;;;1.90;;
10191;SDS011;17580;50.850;4.504;2023-08-17T01:10:25;1.97;;;1.87;;
10191;SDS011;17580;50.850;4.504;2023-08-17T01:12:57;2.30;;;2.20;;
10191;SDS011;17580;50.850;4.504;2023-08-17T01:15:31;2.53;;;2.33;;
10191;SDS011;17580;50.850;4.504;2023-08-17T01:18:04;3.20;;;1.90;;
10191;SDS011;17580;50.850;4.504;2023-08-17T01:20:37;2.07;;;1.97;;
10191;SDS011;17580;50.850;4.504;2023-08-17T01:23:05;2.00;;;1.90;;
10191;SDS011;17580;50.850;4.504;2023-08-17T01:25:33;2.37;;;2.07;;
10191;SDS011;17580;50.850;4.504;2023-08-17T01:28:02;1.97;;;1.87;;
10191;SDS011;17580;50.850;4.504;2023-08-17T01:30:30;3.40;;;2.07;;
10191;SDS011;17580;50.850;4.504;2023-08-17T01:33:03;3.97;;;1.93;;
10191;SDS011;17580;50.850;4.504;2023-08-17T01:35:35;2.17;;;2.00;;
10191;SDS011;17580;50.850;4.504;2023-08-17T01:38:09;3.00;;;2.30;;
10191;SDS011;17580;50.850;4.504;2023-08-17T01:40:47;2.53;;;2.37;;
10191;SDS011;17580;50.850;4.504;2023-08-17T01:43:16;2.60;;;2.40;;
10191;SDS011;17580;50.850;4.504;2023-08-17T01:45:44;2.23;;;2.13;;
10191;SDS011;17580;50.850;4.504;2023-08-17T01:48:11;2.37;;;2.20;;
10191;SDS011;17580;50.850;4.504;2023-08-17T01:50:38;2.40;;;2.30;;
10191;SDS011;17580;50.850;4.504;2023-08-17T01:53:05;2.43;;;2.33;;
10191;SDS011;17580;50.850;4.504;2023-08-17T01:55:34;2.90;;;2.03;;
10191;SDS011;17580;50.850;4.504;2023-08-17T01:58:01;3.43;;;2.30;;
10191;SDS011;17580;50.850;4.504;2023-08-17T02:00:29;3.30;;;2.40;;
10191;SDS011;17580;50.850;4.504;2023-08-17T02:02:56;3.83;;;2.30;;
10191;SDS011;17580;50.850;4.504;2023-08-17T02:05:23;2.40;;;2.20;;
10191;SDS011;17580;50.850;4.504;2023-08-17T02:07:50;2.23;;;2.17;;
10191;SDS011;17580;50.850;4.504;2023-08-17T02:10:17;2.27;;;2.17;;
10191;SDS011;17580;50.850;4.504;2023-08-17T02:12:46;3.23;;;2.10;;
10191;SDS011;17580;50.850;4.504;2023-08-17T02:15:13;2.73;;;2.00;;
10191;SDS011;17580;50.850;4.504;2023-08-17T02:17:41;2.20;;;2.10;;
10191;SDS011;17580;50.850;4.504;2023-08-17T02:20:08;2.77;;;2.40;;
10191;SDS011;17580;50.850;4.504;2023-08-17T02:22:36;2.60;;;2.40;;
10191;SDS011;17580;50.850;4.504;2023-08-17T02:25:03;3.57;;;2.60;;
10191;SDS011;17580;50.850;4.504;2023-08-17T02:27:31;2.50;;;2.30;;
10191;SDS011;17580;50.850;4.504;2023-08-17T02:29:59;2.50;;;2.30;;
10191;SDS011;17580;50.850;4.504;2023-08-17T02:32:26;2.23;;;2.13;;
10191;SDS011;17580;50.850;4.504;2023-08-17T02:34:54;2.60;;;2.40;;
10191;SDS011;17580;50.850;4.504;2023-08-17T02:37:21;2.77;;;2.57;;
10191;SDS011;17580;50.850;4.504;2023-08-17T02:39:48;2.60;;;2.40;;
10191;SDS011;17580;50.850;4.504;2023-08-17T02:42:15;2.03;;;1.93;;
10191;SDS011;17580;50.850;4.504;2023-08-17T02:44:42;2.17;;;2.07;;
10191;SDS011;17580;50.850;4.504;2023-08-17T02:47:10;3.90;;;2.27;;
10191;SDS011;17580;50.850;4.504;2023-08-17T02:49:37;2.03;;;1.93;;
10191;SDS011;17580;50.850;4.504;2023-08-17T02:52:05;2.13;;;2.00;;
10191;SDS011;17580;50.850;4.504;2023-08-17T02:54:32;2.33;;;2.20;;
10191;SDS011;17580;50.850;4.504;2023-08-17T02:56:59;2.40;;;2.23;;
10191;SDS011;17580;50.850;4.504;2023-08-17T02:59:26;2.63;;;1.97;;
10191;SDS011;17580;50.850;4.504;2023-08-17T03:01:53;1.97;;;1.90;;
10191;SDS011;17580;50.850;4.504;2023-08-17T03:04:22;3.70;;;2.47;;
10191;SDS011;17580;50.850;4.504;2023-08-17T03:06:49;2.30;;;2.20;;
10191;SDS011;17580;50.850;4.504;2023-08-17T03:09:16;3.27;;;2.40;;
10191;SDS011;17580;50.850;4.504;2023-08-17T03:11:43;2.20;;;2.10;;
10191;SDS011;17580;50.850;4.504;2023-08-17T03:14:10;3.43;;;2.20;;
10191;SDS011;17580;50.850;4.504;2023-08-17T03:17:06;3.43;;;1.90;;
10191;SDS011;17580;50.850;4.504;2023-08-17T03:19:33;4.03;;;2.57;;
10191;SDS011;17580;50.850;4.504;2023-08-17T03:22:00;2.13;;;2.03;;
10191;SDS011;17580;50.850;4.504;2023-08-17T03:24:27;3.00;;;2.07;;
10191;SDS011;17580;50.850;4.504;2023-08-17T03:26:54;2.00;;;1.90;;
10191;SDS011;17580;50.850;4.504;2023-08-17T03:29:21;2.50;;;2.30;;
10191;SDS011;17580;50.850;4.504;2023-08-17T03:31:47;1.90;;;1.80;;
10191;SDS011;17580;50.850;4.504;2023-08-17T03:34:16;1.83;;;1.77;;
10191;SDS011;17580;50.850;4.504;2023-08-17T03:36:43;2.23;;;2.13;;
10191;SDS011;17580;50.850;4.504;2023-08-17T03:39:10;2.57;;;1.97;;
10191;SDS011;17580;50.850;4.504;2023-08-17T03:41:37;2.10;;;1.90;;
10191;SDS011;17580;50.850;4.504;2023-08-17T03:44:04;3.53;;;1.97;;
10191;SDS011;17580;50.850;4.504;2023-08-17T03:46:32;2.10;;;2.00;;
10191;SDS011;17580;50.850;4.504;2023-08-17T03:48:59;2.30;;;2.20;;
10191;SDS011;17580;50.850;4.504;2023-08-17T03:51:28;4.53;;;2.00;;
10191;SDS011;17580;50.850;4.504;2023-08-17T03:53:55;1.87;;;1.77;;
10191;SDS011;17580;50.850;4.504;2023-08-17T03:56:21;2.53;;;2.03;;
10191;SDS011;17580;50.850;4.504;2023-08-17T03:58:49;2.40;;;2.20;;
10191;SDS011;17580;50.850;4.504;2023-08-17T04:01:16;2.27;;;2.17;;
10191;SDS011;17580;50.850;4.504;2023-08-17T04:03:43;2.10;;;2.00;;
10191;SDS011;17580;50.850;4.504;2023-08-17T04:06:10;2.27;;;2.10;;
10191;SDS011;17580;50.850;4.504;2023-08-17T04:08:38;2.47;;;2.27;;
10191;SDS011;17580;50.850;4.504;2023-08-17T04:11:05;3.47;;;2.10;;
10191;SDS011;17580;50.850;4.504;2023-08-17T04:13:32;3.53;;;2.53;;
10191;SDS011;17580;50.850;4.504;2023-08-17T04:15:59;2.17;;;2.00;;
10191;SDS011;17580;50.850;4.504;2023-08-17T04:18:26;3.27;;;2.20;;
10191;SDS011;17580;50.850;4.504;2023-08-17T04:20:53;3.57;;;2.27;;
10191;SDS011;17580;50.850;4.504;2023-08-17T04:23:20;2.27;;;2.17;;
10191;SDS011;17580;50.850;4.504;2023-08-17T04:25:48;2.63;;;2.00;;
10191;SDS011;17580;50.850;4.504;2023-08-17T04:28:15;2.03;;;1.93;;
10191;SDS011;17580;50.850;4.504;2023-08-17T04:30:42;2.70;;;2.50;;
10191;SDS011;17580;50.850;4.504;2023-08-17T04:33:09;2.53;;;2.13;;
10191;SDS011;17580;50.850;4.504;2023-08-17T04:35:36;3.43;;;2.20;;
10191;SDS011;17580;50.850;4.504;2023-08-17T04:38:03;1.93;;;1.83;;
10191;SDS011;17580;50.850;4.504;2023-08-17T04:40:30;2.20;;;2.00;;
10191;SDS011;17580;50.850;4.504;2023-08-17T04:42:59;3.27;;;2.67;;
10191;SDS011;17580;50.850;4.504;2023-08-17T04:45:25;3.70;;;2.30;;
10191;SDS011;17580;50.850;4.504;2023-08-17T04:47:52;4.07;;;2.40;;
10191;SDS011;17580;50.850;4.504;2023-08-17T04:50:19;2.53;;;2.10;;
10191;SDS011;17580;50.850;4.504;2023-08-17T04:52:46;2.60;;;2.40;;
10191;SDS011;17580;50.850;4.504;2023-08-17T04:55:13;3.83;;;2.00;;
10191;SDS011;17580;50.850;4.504;2023-08-17T04:57:40;4.83;;;2.77;;
10191;SDS011;17580;50.850;4.504;2023-08-17T05:00:09;2.33;;;2.13;;
10191;SDS011;17580;50.850;4.504;2023-08-17T05:02:37;6.37;;;2.40;;
10191;SDS011;17580;50.850;4.504;2023-08-17T05:05:05;2.30;;;2.10;;
10191;SDS011;17580;50.850;4.504;2023-08-17T05:07:33;2.30;;;2.07;;
10191;SDS011;17580;50.850;4.504;2023-08-17T05:10:00;2.40;;;2.20;;
10191;SDS011;17580;50.850;4.504;2023-08-17T05:12:28;4.10;;;2.30;;
10191;SDS011;17580;50.850;4.504;2023-08-17T05:14:55;3.27;;;2.47;;
10191;SDS011;17580;50.850;4.504;2023-08-17T05:17:23;2.23;;;2.03;;
10191;SDS011;17580;50.850;4.504;2023-08-17T05:19:50;4.40;;;2.07;;
10191;SDS011;17580;50.850;4.504;2023-08-17T05:22:17;2.30;;;2.20;;
10191;SDS011;17580;50.850;4.504;2023-08-17T05:24:44;2.33;;;2.13;;
10191;SDS011;17580;50.850;4.504;2023-08-17T05:27:11;4.00;;;2.30;;
10191;SDS011;17580;50.850;4.504;2023-08-17T05:29:38;2.63;;;2.00;;
10191;SDS011;17580;50.850;4.504;2023-08-17T05:32:05;2.60;;;2.13;;
10191;SDS011;17580;50.850;4.504;2023-08-17T05:34:34;2.13;;;1.83;;
10191;SDS011;17580;50.850;4.504;2023-08-17T05:37:00;3.27;;;1.97;;
10191;SDS011;17580;50.850;4.504;2023-08-17T05:39:28;7.40;;;2.73;;
10191;SDS011;17580;50.850;4.504;2023-08-17T05:41:55;3.60;;;2.40;;
10191;SDS011;17580;50.850;4.504;2023-08-17T05:44:22;4.33;;;2.17;;
10191;SDS011;17580;50.850;4.504;2023-08-17T05:46:49;2.23;;;2.03;;
10191;SDS011;17580;50.850;4.504;2023-08-17T05:49:15;3.57;;;2.37;;
10191;SDS011;17580;50.850;4.504;2023-08-17T05:51:44;4.53;;;2.20;;
10191;SDS011;17580;50.850;4.504;2023-08-17T05:54:11;2.27;;;2.07;;
10191;SDS011;17580;50.850;4.504;2023-08-17T05:56:38;5.77;;;2.73;;
10191;SDS011;17580;50.850;4.504;2023-08-17T05:59:09;2.73;;;2.20;;
10191;SDS011;17580;50.850;4.504;2023-08-17T06:01:36;1.97;;;1.70;;
10191;SDS011;17580;50.850;4.504;2023-08-17T06:04:03;2.13;;;2.03;;
10191;SDS011;17580;50.850;4.504;2023-08-17T06:06:31;2.57;;;2.37;;
10191;SDS011;17580;50.850;4.504;2023-08-17T06:09:00;10.03;;;2.60;;
10191;SDS011;17580;50.850;4.504;2023-08-17T06:11:27;2.93;;;2.67;;
10191;SDS011;17580;50.850;4.504;2023-08-17T06:13:54;2.97;;;2.37;;
10191;SDS011;17580;50.850;4.504;2023-08-17T06:16:21;2.50;;;2.37;;
10191;SDS011;17580;50.850;4.504;2023-08-17T06:18:48;3.37;;;2.57;;
10191;SDS011;17580;50.850;4.504;2023-08-17T06:21:15;2.43;;;2.23;;
10191;SDS011;17580;50.850;4.504;2023-08-17T06:23:42;2.83;;;2.40;;
10191;SDS011;17580;50.850;4.504;2023-08-17T06:26:11;2.90;;;2.50;;
10191;SDS011;17580;50.850;4.504;2023-08-17T06:28:37;3.67;;;2.40;;
10191;SDS011;17580;50.850;4.504;2023-08-17T06:31:05;4.10;;;2.27;;
10191;SDS011;17580;50.850;4.504;2023-08-17T06:33:32;3.87;;;3.10;;
10191;SDS011;17580;50.850;4.504;2023-08-17T06:35:59;2.90;;;2.67;;
10191;SDS011;17580;50.850;4.504;2023-08-17T06:38:26;3.23;;;2.70;;
10191;SDS011;17580;50.850;4.504;2023-08-17T06:40:53;4.07;;;2.67;;
10191;SDS011;17580;50.850;4.504;2023-08-17T06:43:21;2.90;;;2.43;;
10191;SDS011;17580;50.850;4.504;2023-08-17T06:45:48;5.07;;;2.90;;
10191;SDS011;17580;50.850;4.504;2023-08-17T06:48:15;5.63;;;2.67;;
10191;SDS011;17580;50.850;4.504;2023-08-17T06:50:42;5.47;;;2.53;;
10191;SDS011;17580;50.850;4.504;2023-08-17T06:53:09;4.70;;;3.07;;
10191;SDS011;17580;50.850;4.504;2023-08-17T06:55:36;2.90;;;2.70;;
10191;SDS011;17580;50.850;4.504;2023-08-17T06:58:03;4.17;;;3.30;;
10191;SDS011;17580;50.850;4.504;2023-08-17T07:00:32;4.73;;;2.60;;
10191;SDS011;17580;50.850;4.504;2023-08-17T07:03:00;3.97;;;2.63;;
10191;SDS011;17580;50.850;4.504;2023-08-17T07:05:28;5.73;;;2.80;;
10191;SDS011;17580;50.850;4.504;2023-08-17T07:07:55;3.23;;;2.87;;
10191;SDS011;17580;50.850;4.504;2023-08-17T07:10:24;12.60;;;3.07;;
10191;SDS011;17580;50.850;4.504;2023-08-17T07:12:51;2.97;;;2.70;;
10191;SDS011;17580;50.850;4.504;2023-08-17T07:15:18;6.13;;;3.50;;
10191;SDS011;17580;50.850;4.504;2023-08-17T07:17:46;4.60;;;3.10;;
10191;SDS011;17580;50.850;4.504;2023-08-17T07:20:13;5.63;;;3.33;;
10191;SDS011;17580;50.850;4.504;2023-08-17T07:22:40;5.77;;;3.37;;
10191;SDS011;17580;50.850;4.504;2023-08-17T07:25:07;4.93;;;3.57;;
10191;SDS011;17580;50.850;4.504;2023-08-17T07:27:35;3.77;;;3.33;;
10191;SDS011;17580;50.850;4.504;2023-08-17T07:30:02;4.40;;;3.23;;
10191;SDS011;17580;50.850;4.504;2023-08-17T07:32:29;3.77;;;3.27;;
10191;SDS011;17580;50.850;4.504;2023-08-17T07:34:57;3.33;;;3.03;;
10191;SDS011;17580;50.850;4.504;2023-08-17T07:37:24;4.87;;;3.47;;
10191;SDS011;17580;50.850;4.504;2023-08-17T07:39:57;3.90;;;3.53;;
10191;SDS011;17580;50.850;4.504;2023-08-17T07:42:24;5.63;;;4.20;;
10191;SDS011;17580;50.850;4.504;2023-08-17T07:44:51;4.57;;;4.03;;
10191;SDS011;17580;50.850;4.504;2023-08-17T07:47:18;4.60;;;3.67;;
10191;SDS011;17580;50.850;4.504;2023-08-17T07:49:45;5.60;;;4.33;;
10191;SDS011;17580;50.850;4.504;2023-08-17T07:52:13;7.33;;;4.17;;
10191;SDS011;17580;50.850;4.504;2023-08-17T07:54:41;5.50;;;3.97;;
10191;SDS011;17580;50.850;4.504;2023-08-17T07:57:08;3.63;;;3.43;;
10191;SDS011;17580;50.850;4.504;2023-08-17T07:59:34;6.83;;;4.00;;
10191;SDS011;17580;50.850;4.504;2023-08-17T08:02:01;5.37;;;3.70;;
10191;SDS011;17580;50.850;4.504;2023-08-17T08:04:28;5.57;;;2.83;;
10191;SDS011;17580;50.850;4.504;2023-08-17T08:06:55;7.17;;;3.43;;
10191;SDS011;17580;50.850;4.504;2023-08-17T08:09:24;4.07;;;3.23;;
10191;SDS011;17580;50.850;4.504;2023-08-17T08:11:50;3.53;;;2.50;;
10191;SDS011;17580;50.850;4.504;2023-08-17T08:14:17;3.60;;;3.07;;
10191;SDS011;17580;50.850;4.504;2023-08-17T08:16:44;3.47;;;2.83;;
10191;SDS011;17580;50.850;4.504;2023-08-17T08:19:12;5.43;;;2.70;;
10191;SDS011;17580;50.850;4.504;2023-08-17T08:21:39;5.70;;;3.60;;
10191;SDS011;17580;50.850;4.504;2023-08-17T08:24:06;5.73;;;3.50;;
10191;SDS011;17580;50.850;4.504;2023-08-17T08:26:34;3.73;;;3.33;;
10191;SDS011;17580;50.850;4.504;2023-08-17T08:29:01;5.17;;;3.40;;
10191;SDS011;17580;50.850;4.504;2023-08-17T08:31:28;3.30;;;3.10;;
10191;SDS011;17580;50.850;4.504;2023-08-17T08:33:55;4.87;;;3.30;;
10191;SDS011;17580;50.850;4.504;2023-08-17T08:36:22;4.93;;;3.37;;
10191;SDS011;17580;50.850;4.504;2023-08-17T08:38:49;7.67;;;3.37;;
10191;SDS011;17580;50.850;4.504;2023-08-17T08:41:16;6.07;;;3.73;;
10191;SDS011;17580;50.850;4.504;2023-08-17T08:43:45;3.77;;;3.43;;
10191;SDS011;17580;50.850;4.504;2023-08-17T08:46:12;5.50;;;4.10;;
10191;SDS011;17580;50.850;4.504;2023-08-17T08:48:41;5.53;;;3.80;;
10191;SDS011;17580;50.850;4.504;2023-08-17T08:51:10;6.23;;;4.03;;
10191;SDS011;17580;50.850;4.504;2023-08-17T08:53:44;4.70;;;3.07;;
10191;SDS011;17580;50.850;4.504;2023-08-17T08:56:11;4.47;;;3.33;;
10191;SDS011;17580;50.850;4.504;2023-08-17T08:58:39;4.57;;;3.50;;
10191;SDS011;17580;50.850;4.504;2023-08-17T09:01:08;5.83;;;3.33;;
10191;SDS011;17580;50.850;4.504;2023-08-17T09:03:36;3.43;;;3.07;;
10191;SDS011;17580;50.850;4.504;2023-08-17T09:06:04;4.80;;;3.30;;
10191;SDS011;17580;50.850;4.504;2023-08-17T09:08:31;3.53;;;3.23;;
10191;SDS011;17580;50.850;4.504;2023-08-17T09:10:59;4.00;;;3.70;;
10191;SDS011;17580;50.850;4.504;2023-08-17T09:13:26;5.03;;;3.53;;
10191;SDS011;17580;50.850;4.504;2023-08-17T09:15:53;7.07;;;4.03;;
10191;SDS011;17580;50.850;4.504;2023-08-17T09:18:21;4.70;;;3.73;;
10191;SDS011;17580;50.850;4.504;2023-08-17T09:20:48;5.13;;;3.50;;
10191;SDS011;17580;50.850;4.504;2023-08-17T09:23:18;4.50;;;4.10;;
10191;SDS011;17580;50.850;4.504;2023-08-17T09:25:47;7.10;;;4.27;;
10191;SDS011;17580;50.850;4.504;2023-08-17T09:28:17;4.40;;;4.00;;
10191;SDS011;17580;50.850;4.504;2023-08-17T09:30:54;5.50;;;4.37;;
10191;SDS011;17580;50.850;4.504;2023-08-17T09:33:25;7.87;;;4.50;;
10191;SDS011;17580;50.850;4.504;2023-08-17T09:35:53;5.03;;;4.13;;
10191;SDS011;17580;50.850;4.504;2023-08-17T09:38:21;4.50;;;4.10;;
10191;SDS011;17580;50.850;4.504;2023-08-17T09:40:48;4.97;;;4.57;;
10191;SDS011;17580;50.850;4.504;2023-08-17T09:43:16;5.27;;;4.67;;
10191;SDS011;17580;50.850;4.504;2023-08-17T09:45:45;6.73;;;5.93;;
10191;SDS011;17580;50.850;4.504;2023-08-17T09:48:15;11.10;;;5.83;;
10191;SDS011;17580;50.850;4.504;2023-08-17T09:50:45;7.33;;;6.60;;
10191;SDS011;17580;50.850;4.504;2023-08-17T09:53:13;6.90;;;6.17;;
10191;SDS011;17580;50.850;4.504;2023-08-17T09:55:40;6.77;;;5.63;;
10191;SDS011;17580;50.850;4.504;2023-08-17T09:58:08;7.17;;;5.37;;
10191;SDS011;17580;50.850;4.504;2023-08-17T10:00:35;5.50;;;4.87;;
10191;SDS011;17580;50.850;4.504;2023-08-17T10:03:04;6.60;;;5.57;;
10191;SDS011;17580;50.850;4.504;2023-08-17T10:05:31;6.00;;;5.33;;
10191;SDS011;17580;50.850;4.504;2023-08-17T10:08:04;8.93;;;6.27;;
10191;SDS011;17580;50.850;4.504;2023-08-17T10:10:34;6.20;;;5.20;;
10191;SDS011;17580;50.850;4.504;2023-08-17T10:13:06;6.13;;;5.57;;
10191;SDS011;17580;50.850;4.504;2023-08-17T10:15:36;5.23;;;4.73;;
10191;SDS011;17580;50.850;4.504;2023-08-17T10:18:09;6.00;;;4.90;;
10191;SDS011;17580;50.850;4.504;2023-08-17T10:20:42;6.97;;;5.40;;
10191;SDS011;17580;50.850;4.504;2023-08-17T10:23:20;5.63;;;4.77;;
10191;SDS011;17580;50.850;4.504;2023-08-17T10:25:50;6.20;;;5.60;;
10191;SDS011;17580;50.850;4.504;2023-08-17T10:28:18;9.43;;;6.43;;
10191;SDS011;17580;50.850;4.504;2023-08-17T10:30:46;6.87;;;6.17;;
10191;SDS011;17580;50.850;4.504;2023-08-17T10:33:14;6.27;;;5.67;;
10191;SDS011;17580;50.850;4.504;2023-08-17T10:35:41;6.80;;;6.10;;
10191;SDS011;17580;50.850;4.504;2023-08-17T10:38:09;6.83;;;6.13;;
10191;SDS011;17580;50.850;4.504;2023-08-17T10:40:39;9.57;;;8.00;;
10191;SDS011;17580;50.850;4.504;2023-08-17T10:43:07;9.47;;;7.50;;
10191;SDS011;17580;50.850;4.504;2023-08-17T10:45:36;8.53;;;7.30;;
10191;SDS011;17580;50.850;4.504;2023-08-17T10:51:00;9.40;;;6.60;;
10191;SDS011;17580;50.850;4.504;2023-08-17T10:53:32;7.27;;;6.30;;
10191;SDS011;17580;50.850;4.504;2023-08-17T10:56:10;5.97;;;5.47;;
10191;SDS011;17580;50.850;4.504;2023-08-17T10:58:38;5.90;;;5.50;;
10191;SDS011;17580;50.850;4.504;2023-08-17T11:01:06;6.70;;;5.17;;
10191;SDS011;17580;50.850;4.504;2023-08-17T11:03:33;6.00;;;5.53;;
10191;SDS011;17580;50.850;4.504;2023-08-17T11:06:13;5.30;;;4.80;;
10191;SDS011;17580;50.850;4.504;2023-08-17T11:08:51;5.63;;;5.07;;
10191;SDS011;17580;50.850;4.504;2023-08-17T11:11:21;5.50;;;4.97;;
10191;SDS011;17580;50.850;4.504;2023-08-17T11:13:49;6.93;;;4.90;;
10191;SDS011;17580;50.850;4.504;2023-08-17T11:16:16;6.40;;;5.80;;
10191;SDS011;17580;50.850;4.504;2023-08-17T11:18:44;5.73;;;5.17;;
10191;SDS011;17580;50.850;4.504;2023-08-17T11:21:11;5.23;;;4.73;;
10191;SDS011;17580;50.850;4.504;2023-08-17T11:23:39;6.40;;;5.80;;
10191;SDS011;17580;50.850;4.504;2023-08-17T11:26:06;5.60;;;5.10;;
10191;SDS011;17580;50.850;4.504;2023-08-17T11:28:35;6.03;;;5.53;;
10191;SDS011;17580;50.850;4.504;2023-08-17T11:31:04;6.67;;;4.80;;
10191;SDS011;17580;50.850;4.504;2023-08-17T11:33:33;5.77;;;5.30;;
10191;SDS011;17580;50.850;4.504;2023-08-17T11:36:01;4.43;;;4.13;;
10191;SDS011;17580;50.850;4.504;2023-08-17T11:38:30;6.53;;;5.23;;
10191;SDS011;17580;50.850;4.504;2023-08-17T11:40:57;6.43;;;5.83;;
10191;SDS011;17580;50.850;4.504;2023-08-17T11:43:25;5.80;;;5.30;;
10191;SDS011;17580;50.850;4.504;2023-08-17T11:45:55;5.73;;;5.23;;
10191;SDS011;17580;50.850;4.504;2023-08-17T11:48:23;5.00;;;4.60;;
10191;SDS011;17580;50.850;4.504;2023-08-17T11:50:51;8.97;;;6.00;;
10191;SDS011;17580;50.850;4.504;2023-08-17T11:53:18;8.07;;;6.20;;
10191;SDS011;17580;50.850;4.504;2023-08-17T11:55:45;6.47;;;5.87;;
10191;SDS011;17580;50.850;4.504;2023-08-17T11:58:12;7.80;;;7.03;;
10191;SDS011;17580;50.850;4.504;2023-08-17T12:00:39;7.30;;;6.23;;
10191;SDS011;17580;50.850;4.504;2023-08-17T12:03:12;9.43;;;6.23;;
10191;SDS011;17580;50.850;4.504;2023-08-17T12:05:40;6.40;;;5.90;;
10191;SDS011;17580;50.850;4.504;2023-08-17T12:08:08;7.00;;;6.23;;
10191;SDS011;17580;50.850;4.504;2023-08-17T12:10:36;9.57;;;6.07;;
10191;SDS011;17580;50.850;4.504;2023-08-17T12:13:04;6.30;;;5.70;;
10191;SDS011;17580;50.850;4.504;2023-08-17T12:15:31;6.23;;;5.63;;
10191;SDS011;17580;50.850;4.504;2023-08-17T12:17:59;12.10;;;6.70;;
10191;SDS011;17580;50.850;4.504;2023-08-17T12:20:29;8.00;;;6.80;;
10191;SDS011;17580;50.850;4.504;2023-08-17T12:23:00;6.20;;;5.60;;
10191;SDS011;17580;50.850;4.504;2023-08-17T12:25:28;7.30;;;6.60;;
10191;SDS011;17580;50.850;4.504;2023-08-17T12:27:57;7.53;;;6.30;;
10191;SDS011;17580;50.850;4.504;2023-08-17T12:30:25;8.10;;;7.30;;
10191;SDS011;17580;50.850;4.504;2023-08-17T12:32:53;7.00;;;6.30;;
10191;SDS011;17580;50.850;4.504;2023-08-17T12:35:20;6.43;;;5.70;;
10191;SDS011;17580;50.850;4.504;2023-08-17T12:37:50;7.50;;;6.67;;
10191;SDS011;17580;50.850;4.504;2023-08-17T12:40:17;9.03;;;6.97;;
10191;SDS011;17580;50.850;4.504;2023-08-17T12:42:44;7.93;;;6.67;;
10191;SDS011;17580;50.850;4.504;2023-08-17T12:45:12;9.73;;;8.17;;
10191;SDS011;17580;50.850;4.504;2023-08-17T12:47:39;9.77;;;8.80;;
10191;SDS011;17580;50.850;4.504;2023-08-17T12:50:06;8.83;;;8.13;;
10191;SDS011;17580;50.850;4.504;2023-08-17T12:52:33;8.40;;;7.60;;
10191;SDS011;17580;50.850;4.504;2023-08-17T12:55:02;11.50;;;8.47;;
10191;SDS011;17580;50.850;4.504;2023-08-17T12:57:29;9.03;;;8.07;;
10191;SDS011;17580;50.850;4.504;2023-08-17T12:59:56;8.47;;;7.53;;
10191;SDS011;17580;50.850;4.504;2023-08-17T13:02:23;7.70;;;7.00;;
10191;SDS011;17580;50.850;4.504;2023-08-17T13:04:50;8.97;;;8.17;;
10191;SDS011;17580;50.850;4.504;2023-08-17T13:07:17;9.80;;;8.77;;
10191;SDS011;17580;50.850;4.504;2023-08-17T13:09:44;8.77;;;7.90;;
10191;SDS011;17580;50.850;4.504;2023-08-17T13:12:13;8.97;;;7.57;;
10191;SDS011;17580;50.850;4.504;2023-08-17T13:14:40;10.43;;;7.90;;
10191;SDS011;17580;50.850;4.504;2023-08-17T13:17:07;10.83;;;8.37;;
10191;SDS011;17580;50.850;4.504;2023-08-17T13:19:34;9.00;;;8.10;;
10191;SDS011;17580;50.850;4.504;2023-08-17T13:22:01;8.53;;;7.57;;
10191;SDS011;17580;50.850;4.504;2023-08-17T13:24:29;9.83;;;8.67;;
10191;SDS011;17580;50.850;4.504;2023-08-17T13:26:56;8.70;;;7.80;;
10191;SDS011;17580;50.850;4.504;2023-08-17T13:29:24;11.40;;;8.47;;
10191;SDS011;17580;50.850;4.504;2023-08-17T13:31:51;13.90;;;10.53;;
10191;SDS011;17580;50.850;4.504;2023-08-17T13:34:18;11.43;;;9.63;;
10191;SDS011;17580;50.850;4.504;2023-08-17T13:36:45;10.73;;;9.40;;
10191;SDS011;17580;50.850;4.504;2023-08-17T13:39:12;9.73;;;8.83;;
10191;SDS011;17580;50.850;4.504;2023-08-17T13:41:40;11.30;;;9.20;;
10191;SDS011;17580;50.850;4.504;2023-08-17T13:44:07;10.33;;;9.23;;
10191;SDS011;17580;50.850;4.504;2023-08-17T13:46:36;12.30;;;9.73;;
10191;SDS011;17580;50.850;4.504;2023-08-17T13:49:03;13.47;;;9.87;;
10191;SDS011;17580;50.850;4.504;2023-08-17T13:51:30;11.37;;;9.17;;
10191;SDS011;17580;50.850;4.504;2023-08-17T13:53:57;11.87;;;8.73;;
10191;SDS011;17580;50.850;4.504;2023-08-17T13:56:24;9.17;;;8.27;;
10191;SDS011;17580;50.850;4.504;2023-08-17T13:58:51;10.57;;;8.03;;
10191;SDS011;17580;50.850;4.504;2023-08-17T14:01:18;10.00;;;9.00;;
10191;SDS011;17580;50.850;4.504;2023-08-17T14:03:46;10.37;;;9.37;;
10191;SDS011;17580;50.850;4.504;2023-08-17T14:06:13;10.83;;;9.37;;
10191;SDS011;17580;50.850;4.504;2023-08-17T14:08:40;10.23;;;9.07;;
10191;SDS011;17580;50.850;4.504;2023-08-17T14:11:08;9.67;;;8.87;;
10191;SDS011;17580;50.850;4.504;2023-08-17T14:13:35;10.33;;;9.23;;
10191;SDS011;17580;50.850;4.504;2023-08-17T14:16:03;11.20;;;9.60;;
10191;SDS011;17580;50.850;4.504;2023-08-17T14:18:30;9.73;;;8.73;;
10191;SDS011;17580;50.850;4.504;2023-08-17T14:20:58;8.83;;;8.00;;
10191;SDS011;17580;50.850;4.504;2023-08-17T14:23:25;10.67;;;9.13;;
10191;SDS011;17580;50.850;4.504;2023-08-17T14:25:52;10.90;;;9.80;;
10191;SDS011;17580;50.850;4.504;2023-08-17T14:28:19;11.77;;;10.63;;
10191;SDS011;17580;50.850;4.504;2023-08-17T14:30:46;11.30;;;10.30;;
10191;SDS011;17580;50.850;4.504;2023-08-17T14:33:13;11.50;;;10.50;;
10191;SDS011;17580;50.850;4.504;2023-08-17T14:35:40;10.60;;;9.73;;
10191;SDS011;17580;50.850;4.504;2023-08-17T14:38:08;11.90;;;10.67;;
10191;SDS011;17580;50.850;4.504;2023-08-17T14:40:38;11.07;;;9.77;;
10191;SDS011;17580;50.850;4.504;2023-08-17T14:43:08;11.80;;;10.70;;
10191;SDS011;17580;50.850;4.504;2023-08-17T14:45:36;10.43;;;9.53;;
10191;SDS011;17580;50.850;4.504;2023-08-17T14:48:04;9.63;;;8.80;;
10191;SDS011;17580;50.850;4.504;2023-08-17T14:50:31;8.77;;;8.00;;
10191;SDS011;17580;50.850;4.504;2023-08-17T14:52:58;10.20;;;9.17;;